createdAt,value
2019-02-12T00:01:37.020Z,88.90
2019-02-12T00:04:07.481Z,89.10
2019-02-12T00:06:37.949Z,89.10
2019-02-12T00:09:10.099Z,89.00
2019-02-12T00:11:40.906Z,89.00
2019-02-12T00:14:11.471Z,88.80
2019-02-12T00:16:42.145Z,88.90
2019-02-12T00:19:12.580Z,88.80
2019-02-12T00:21:43.013Z,88.60
2019-02-12T00:24:13.608Z,88.60
2019-02-12T00:26:44.068Z,88.70
2019-02-12T00:29:14.789Z,88.60
2019-02-12T00:31:45.258Z,88.50
2019-02-12T00:34:15.717Z,88.50
2019-02-12T00:36:46.177Z,89.20
2019-02-12T00:39:16.997Z,88.50
2019-02-12T00:41:47.413Z,88.50
2019-02-12T00:44:18.093Z,88.60
2019-02-12T00:46:48.817Z,88.80
2019-02-12T00:49:20.332Z,88.90
2019-02-12T00:51:50.801Z,89.10
2019-02-12T00:54:21.241Z,88.90
2019-02-12T00:56:51.675Z,88.80
2019-02-12T00:59:22.142Z,88.70
2019-02-12T01:01:53.573Z,88.60
2019-02-12T01:04:24.049Z,88.80
2019-02-12T01:06:54.507Z,88.90
2019-02-12T01:09:25.024Z,88.80
2019-02-12T01:11:55.697Z,89.00
2019-02-12T01:14:26.154Z,88.90
2019-02-12T01:16:56.853Z,88.90
2019-02-12T01:19:27.625Z,89.10
2019-02-12T01:21:58.052Z,89.00
2019-02-12T01:24:28.477Z,88.90
2019-02-12T01:26:58.913Z,89.20
2019-02-12T01:29:29.948Z,88.80
2019-02-12T01:32:00.917Z,89.00
2019-02-12T01:34:32.100Z,88.90
2019-02-12T01:37:02.552Z,88.60
2019-02-12T01:39:34.624Z,88.90
2019-02-12T01:42:05.306Z,88.50
2019-02-12T01:44:35.833Z,88.60
2019-02-12T01:47:06.556Z,88.40
2019-02-12T01:49:36.986Z,88.50
2019-02-12T01:52:07.481Z,88.60
2019-02-12T01:54:37.965Z,88.50
2019-02-12T01:57:08.431Z,88.50
2019-02-12T01:59:38.899Z,88.40
2019-02-12T02:02:09.340Z,88.30
2019-02-12T02:04:39.790Z,88.30
2019-02-12T02:07:10.216Z,88.20
2019-02-12T02:09:40.666Z,88.10
2019-02-12T02:12:11.121Z,87.70
2019-02-12T02:14:42.002Z,87.90
2019-02-12T02:17:12.681Z,87.90
2019-02-12T02:19:43.408Z,88.20
2019-02-12T02:22:13.845Z,87.90
2019-02-12T02:24:44.300Z,87.90
2019-02-12T02:27:14.749Z,87.90
2019-02-12T02:29:45.201Z,87.90
2019-02-12T02:32:15.661Z,88.00
2019-02-12T02:34:47.077Z,87.90
2019-02-12T02:37:18.443Z,87.90
2019-02-12T02:39:48.911Z,87.80
2019-02-12T02:42:19.633Z,87.90
2019-02-12T02:44:50.090Z,88.10
2019-02-12T02:47:20.540Z,88.30
2019-02-12T02:49:51.000Z,88.40
2019-02-12T02:52:21.429Z,88.50
2019-02-12T02:54:51.869Z,88.30
2019-02-12T02:57:22.589Z,88.40
2019-02-12T02:59:53.029Z,88.50
2019-02-12T03:02:23.483Z,88.40
2019-02-12T03:04:54.014Z,88.50
2019-02-12T03:07:24.437Z,88.60
2019-02-12T03:09:54.867Z,88.50
2019-02-12T03:12:26.289Z,88.30
2019-02-12T03:14:56.757Z,88.00
2019-02-12T03:17:27.202Z,87.90
2019-02-12T03:19:57.667Z,87.70
2019-02-12T03:22:28.488Z,87.70
2019-02-12T03:24:59.115Z,87.70
2019-02-12T03:27:29.542Z,87.70
2019-02-12T03:30:00.500Z,87.80
2019-02-12T03:32:31.054Z,88.20
2019-02-12T03:35:01.572Z,88.00
2019-02-12T03:37:32.061Z,88.10
2019-02-12T03:40:02.590Z,88.10
2019-02-12T03:42:33.043Z,88.00
2019-02-12T03:45:03.711Z,88.00
2019-02-12T03:47:34.132Z,88.20
2019-02-12T03:50:04.984Z,88.30
2019-02-12T03:52:36.416Z,88.80
2019-02-12T03:55:08.218Z,87.90
2019-02-12T03:57:38.965Z,88.20
2019-02-12T04:00:12.270Z,87.40
2019-02-12T04:03:05.826Z,87.30
2019-02-12T04:05:37.464Z,87.10
2019-02-12T04:08:08.209Z,87.30
2019-02-12T04:10:38.965Z,87.70
2019-02-12T04:13:09.400Z,87.70
2019-02-12T04:15:39.897Z,87.80
2019-02-12T04:18:10.340Z,87.70
2019-02-12T04:20:41.540Z,87.80
2019-02-12T04:23:11.983Z,87.60
2019-02-12T04:25:42.424Z,87.70
2019-02-12T04:28:12.859Z,87.70
2019-02-12T04:30:43.296Z,87.70
2019-02-12T04:33:13.774Z,88.80
2019-02-12T04:35:44.244Z,87.70
2019-02-12T04:38:14.702Z,88.40
2019-02-12T04:40:45.162Z,87.90
2019-02-12T04:43:15.644Z,87.90
2019-02-12T04:45:46.093Z,88.10
2019-02-12T04:48:16.529Z,88.40
2019-02-12T04:50:46.995Z,88.90
2019-02-12T04:53:17.773Z,89.30
2019-02-12T04:55:48.461Z,89.20
2019-02-12T04:58:19.912Z,88.70
2019-02-12T05:00:50.365Z,88.60
2019-02-12T05:03:21.182Z,88.50
2019-02-12T05:05:51.657Z,88.20
2019-02-12T05:08:22.101Z,88.30
2019-02-12T05:11:00.359Z,88.20
2019-02-12T05:13:30.799Z,87.90
2019-02-12T05:16:01.254Z,87.50
2019-02-12T05:18:32.782Z,88.10
2019-02-12T05:21:03.228Z,87.40
2019-02-12T05:23:33.667Z,87.20
2019-02-12T05:26:04.108Z,87.10
2019-02-12T05:28:34.549Z,87.00
2019-02-12T05:31:05.029Z,86.90
2019-02-12T05:33:35.566Z,86.90
2019-02-12T05:36:06.070Z,87.10
2019-02-12T05:38:36.532Z,87.30
2019-02-12T05:41:06.973Z,87.40
2019-02-12T05:43:37.450Z,87.20
2019-02-12T05:46:07.898Z,87.70
2019-02-12T05:48:39.744Z,87.40
2019-02-12T05:51:10.202Z,86.80
2019-02-12T05:53:41.410Z,86.90
2019-02-12T05:56:11.860Z,86.80
2019-02-12T05:58:42.665Z,86.80
2019-02-12T06:01:13.399Z,87.40
2019-02-12T06:03:43.850Z,86.70
2019-02-12T06:06:14.296Z,86.80
2019-02-12T06:08:44.761Z,87.70
2019-02-12T06:11:15.224Z,87.00
2019-02-12T06:13:46.665Z,86.70
2019-02-12T06:16:17.113Z,86.40
2019-02-12T06:18:48.906Z,86.60
2019-02-12T06:21:19.360Z,86.40
2019-02-12T06:23:49.833Z,86.60
2019-02-12T06:26:20.696Z,86.20
2019-02-12T06:28:51.201Z,86.60
2019-02-12T06:31:22.188Z,86.40
2019-02-12T06:33:52.643Z,86.00
2019-02-12T06:36:23.234Z,86.70
2019-02-12T06:38:53.672Z,85.80
2019-02-12T06:41:24.114Z,85.20
2019-02-12T06:43:54.704Z,85.00
2019-02-12T06:46:25.486Z,85.00
2019-02-12T06:48:55.958Z,85.10
2019-02-12T06:51:26.414Z,85.40
2019-02-12T06:53:56.871Z,85.60
2019-02-12T06:56:27.317Z,85.80
2019-02-12T06:58:57.773Z,86.30
2019-02-12T07:01:28.284Z,85.50
2019-02-12T07:04:08.810Z,85.60
2019-02-12T07:07:28.442Z,85.60
2019-02-12T07:10:03.267Z,86.40
2019-02-12T07:13:12.434Z,85.80
2019-02-12T07:16:07.014Z,85.80
2019-02-12T07:19:15.720Z,85.80
2019-02-12T07:22:35.833Z,86.10
2019-02-12T07:25:38.109Z,86.50
2019-02-12T07:28:35.474Z,86.50
2019-02-12T07:31:52.361Z,86.20
2019-02-12T07:34:44.777Z,86.00
2019-02-12T07:37:46.415Z,85.60
2019-02-12T07:40:42.761Z,85.40
2019-02-12T07:44:00.126Z,85.90
2019-02-12T07:47:23.655Z,85.20
2019-02-12T07:50:38.197Z,84.60
2019-02-12T07:53:31.294Z,84.10
2019-02-12T07:56:39.158Z,84.90
2019-02-12T07:59:30.840Z,84.60
2019-02-12T08:02:29.462Z,84.50
2019-02-12T08:05:43.094Z,84.40
2019-02-12T08:08:54.717Z,83.80
2019-02-12T08:12:06.269Z,83.60
2019-02-12T08:14:47.748Z,82.30
2019-02-12T08:17:40.205Z,81.10
2019-02-12T08:20:34.306Z,81.10
2019-02-12T08:23:57.390Z,80.30
2019-02-12T08:26:43.564Z,80.20
2019-02-12T08:29:53.822Z,79.90
2019-02-12T08:33:03.990Z,80.50
2019-02-12T08:36:14.455Z,80.60
2019-02-12T08:39:00.699Z,80.50
2019-02-12T08:42:19.082Z,80.10
2019-02-12T08:45:21.113Z,80.80
2019-02-12T08:48:47.881Z,79.70
2019-02-12T08:51:55.791Z,79.40
2019-02-12T08:54:56.117Z,79.80
2019-02-12T08:58:03.839Z,79.50
2019-02-12T09:01:12.485Z,79.00
2019-02-12T09:04:25.645Z,78.70
2019-02-12T09:07:36.923Z,78.60
2019-02-12T09:11:01.962Z,78.80
2019-02-12T09:13:41.453Z,77.80
2019-02-12T09:17:23.688Z,77.20
2019-02-12T09:20:28.049Z,77.30
2019-02-12T09:23:37.458Z,78.00
2019-02-12T09:26:41.917Z,77.70
2019-02-12T09:29:26.900Z,78.40
2019-02-12T09:32:40.252Z,77.10
2019-02-12T09:35:32.743Z,77.00
2019-02-12T09:38:44.488Z,76.60
2019-02-12T09:41:42.012Z,76.00
2019-02-12T09:44:22.636Z,75.50
2019-02-12T09:47:36.144Z,75.20
2019-02-12T09:50:40.448Z,74.60
2019-02-12T09:53:37.890Z,74.50
2019-02-12T09:56:45.652Z,75.00
2019-02-12T09:59:53.454Z,74.10
2019-02-12T10:03:07.025Z,73.60
2019-02-12T10:06:26.292Z,74.80
2019-02-12T10:09:37.029Z,73.60
2019-02-12T10:12:51.171Z,72.00
2019-02-12T10:15:47.246Z,71.80
2019-02-12T10:18:44.315Z,70.50
2019-02-12T10:21:38.978Z,71.00
2019-02-12T10:24:46.812Z,69.10
2019-02-12T10:27:49.021Z,69.70
2019-02-12T10:30:26.142Z,69.30
2019-02-12T10:32:56.993Z,68.60
2019-02-12T10:35:27.499Z,68.80
2019-02-12T10:37:57.981Z,68.20
2019-02-12T10:40:28.460Z,67.10
2019-02-12T10:42:58.960Z,66.60
2019-02-12T10:45:29.445Z,67.00
2019-02-12T10:48:00.039Z,67.80
2019-02-12T10:50:30.490Z,68.20
2019-02-12T10:53:01.037Z,66.10
2019-02-12T10:55:31.501Z,66.10
2019-02-12T10:58:02.006Z,64.70
2019-02-12T11:00:32.470Z,62.80
2019-02-12T11:03:02.925Z,63.20
2019-02-12T11:05:33.347Z,62.50
2019-02-12T11:08:03.838Z,61.90
2019-02-12T11:10:34.304Z,61.60
2019-02-12T11:13:04.765Z,60.30
2019-02-12T11:15:35.520Z,58.70
2019-02-12T11:18:06.088Z,58.60
2019-02-12T11:20:36.521Z,58.00
2019-02-12T11:23:06.970Z,55.40
2019-02-12T11:25:37.413Z,54.90
2019-02-12T11:28:07.851Z,53.70
2019-02-12T11:30:38.322Z,52.20
2019-02-12T11:33:08.754Z,50.60
2019-02-12T11:35:39.273Z,49.60
2019-02-12T11:38:09.863Z,48.70
2019-02-12T11:40:41.528Z,48.10
2019-02-12T11:43:11.972Z,48.30
2019-02-12T11:45:42.533Z,47.90
2019-02-12T11:48:13.024Z,48.90
2019-02-12T11:50:43.514Z,48.20
2019-02-12T11:53:13.998Z,48.50
2019-02-12T11:55:44.437Z,48.40
2019-02-12T11:58:15.421Z,49.00
2019-02-12T12:00:50.814Z,48.80
2019-02-12T12:03:21.260Z,46.70
2019-02-12T12:05:51.725Z,46.70
2019-02-12T12:08:22.192Z,45.80
2019-02-12T12:10:52.682Z,45.60
2019-02-12T12:13:23.160Z,45.30
2019-02-12T12:15:53.703Z,45.20
2019-02-12T12:18:24.149Z,43.90
2019-02-12T12:20:54.580Z,42.80
2019-02-12T12:23:25.048Z,45.00
2019-02-12T12:25:55.573Z,44.90
2019-02-12T12:28:26.102Z,45.40
2019-02-12T12:30:56.921Z,45.60
2019-02-12T12:33:27.784Z,45.90
2019-02-12T12:35:58.241Z,46.30
2019-02-12T12:38:28.696Z,48.10
2019-02-12T12:40:59.172Z,48.60
2019-02-12T12:43:29.911Z,48.90
2019-02-12T12:46:00.439Z,49.50
2019-02-12T12:48:30.895Z,50.00
2019-02-12T12:51:01.353Z,50.20
2019-02-12T12:53:32.169Z,49.70
2019-02-12T12:56:02.657Z,50.20
2019-02-12T12:58:33.112Z,50.90
2019-02-12T13:01:03.582Z,52.20
2019-02-12T13:03:34.041Z,52.20
2019-02-12T13:06:05.457Z,52.90
2019-02-12T13:08:36.914Z,53.30
2019-02-12T13:11:07.397Z,54.00
2019-02-12T13:13:37.834Z,54.30
2019-02-12T13:16:08.328Z,53.80
2019-02-12T13:18:38.875Z,53.70
2019-02-12T13:21:09.646Z,53.50
2019-02-12T13:23:40.093Z,53.40
2019-02-12T13:26:10.559Z,52.00
2019-02-12T13:28:40.989Z,52.60
2019-02-12T13:31:11.429Z,52.30
2019-02-12T13:33:42.583Z,52.30
2019-02-12T13:36:13.010Z,51.80
2019-02-12T13:38:43.534Z,51.90
2019-02-12T13:41:14.140Z,52.00
2019-02-12T13:43:44.589Z,51.60
2019-02-12T13:46:15.334Z,51.40
2019-02-12T13:48:46.434Z,51.00
2019-02-12T13:51:16.915Z,50.60
2019-02-12T13:53:47.812Z,50.00
2019-02-12T13:56:18.334Z,50.90
2019-02-12T13:58:49.169Z,51.30
2019-02-12T14:01:19.921Z,51.70
2019-02-12T14:03:50.839Z,52.10
2019-02-12T14:06:21.419Z,51.90
2019-02-12T14:08:52.198Z,51.20
2019-02-12T14:11:22.713Z,51.20
2019-02-12T14:13:54.585Z,52.70
2019-02-12T14:16:25.040Z,52.40
2019-02-12T14:18:55.533Z,52.50
2019-02-12T14:21:26.324Z,52.50
2019-02-12T14:23:56.794Z,53.40
2019-02-12T14:26:27.259Z,53.00
2019-02-12T14:28:57.716Z,52.70
2019-02-12T14:31:28.230Z,52.50
2019-02-12T14:33:58.700Z,52.60
2019-02-12T14:36:29.202Z,53.00
2019-02-12T14:39:01.124Z,52.80
2019-02-12T14:41:33.335Z,52.30
2019-02-12T14:44:03.808Z,52.80
2019-02-12T14:46:34.301Z,53.30
2019-02-12T14:49:04.766Z,52.20
2019-02-12T14:51:35.440Z,52.30
2019-02-12T14:54:07.300Z,52.60
2019-02-12T14:56:37.985Z,51.90
2019-02-12T14:59:09.113Z,51.00
2019-02-12T15:01:39.644Z,50.80
2019-02-12T15:04:10.157Z,51.30
2019-02-12T15:06:41.543Z,52.20
2019-02-12T15:09:12.032Z,53.50
2019-02-12T15:11:42.550Z,52.60
2019-02-12T15:14:13.061Z,52.30
2019-02-12T15:16:43.565Z,53.10
2019-02-12T15:19:14.030Z,53.30
2019-02-12T15:21:44.522Z,53.40
2019-02-12T15:24:15.007Z,53.70
2019-02-12T15:26:45.470Z,53.10
2019-02-12T15:29:16.039Z,53.50
2019-02-12T15:31:46.514Z,53.70
2019-02-12T15:34:17.032Z,54.40
2019-02-12T15:36:47.569Z,54.90
2019-02-12T15:39:18.060Z,55.10
2019-02-12T15:41:48.702Z,55.30
2019-02-12T15:44:19.141Z,55.30
2019-02-12T15:46:49.665Z,56.00
2019-02-12T15:49:20.837Z,55.80
2019-02-12T15:51:51.644Z,55.30
2019-02-12T15:54:22.096Z,56.00
2019-02-12T15:56:52.559Z,56.90
2019-02-12T15:59:23.333Z,57.20
2019-02-12T16:01:53.788Z,56.90
2019-02-12T16:04:25.810Z,57.30
2019-02-12T16:06:57.856Z,57.50
2019-02-12T16:09:28.546Z,57.90
2019-02-12T16:11:59.416Z,57.50
2019-02-12T16:14:29.941Z,58.20
2019-02-12T16:17:00.376Z,58.80
2019-02-12T16:19:32.029Z,59.40
2019-02-12T16:22:02.587Z,59.80
2019-02-12T16:24:33.449Z,59.00
2019-02-12T16:27:03.976Z,59.00
2019-02-12T16:29:34.806Z,58.80
2019-02-12T16:32:05.297Z,58.20
2019-02-12T16:34:35.773Z,58.80
2019-02-12T16:37:06.232Z,59.70
2019-02-12T16:39:36.725Z,60.00
2019-02-12T16:42:07.201Z,60.00
2019-02-12T16:44:37.644Z,60.00
2019-02-12T16:47:08.465Z,60.40
2019-02-12T16:49:39.221Z,60.60
2019-02-12T16:52:09.675Z,61.20
2019-02-12T16:54:40.495Z,61.40
2019-02-12T16:57:11.373Z,63.10
2019-02-12T16:59:42.177Z,63.30
2019-02-12T17:02:12.684Z,63.00
2019-02-12T17:04:43.441Z,63.50
2019-02-12T17:07:13.945Z,63.90
2019-02-12T17:09:52.125Z,64.30
2019-02-12T17:12:17.009Z,65.40
2019-02-12T17:14:47.492Z,64.70
2019-02-12T17:17:17.937Z,64.50
2019-02-12T17:19:48.368Z,65.10
2019-02-12T17:22:18.826Z,64.80
2019-02-12T17:24:49.621Z,65.10
2019-02-12T17:27:20.092Z,65.40
2019-02-12T17:29:50.870Z,66.30
2019-02-12T17:32:21.349Z,66.80
2019-02-12T17:34:51.810Z,67.10
2019-02-12T17:37:22.320Z,67.20
2019-02-12T17:39:52.814Z,67.60
2019-02-12T17:42:23.268Z,68.10
2019-02-12T17:44:53.742Z,68.20
2019-02-12T17:47:24.226Z,68.30
2019-02-12T17:49:54.996Z,68.90
2019-02-12T17:52:25.453Z,68.80
2019-02-12T17:54:55.928Z,70.20
2019-02-12T17:57:26.399Z,69.50
2019-02-12T17:59:56.844Z,69.80
2019-02-12T18:02:27.330Z,70.30
2019-02-12T18:04:57.781Z,70.40
2019-02-12T18:07:28.286Z,70.70
2019-02-12T18:09:59.121Z,70.70
2019-02-12T18:12:29.597Z,71.40
2019-02-12T18:15:00.044Z,71.40
2019-02-12T18:17:30.511Z,71.40
2019-02-12T18:20:01.353Z,71.60
2019-02-12T18:22:32.861Z,71.90
2019-02-12T18:25:03.312Z,72.10
2019-02-12T18:27:33.768Z,72.50
2019-02-12T18:30:05.229Z,72.30
2019-02-12T18:32:36.251Z,72.50
2019-02-12T18:35:07.177Z,72.70
2019-02-12T18:37:37.617Z,73.00
2019-02-12T18:40:09.197Z,73.10
2019-02-12T18:42:40.096Z,73.10
2019-02-12T18:45:12.696Z,72.90
2019-02-12T18:47:43.129Z,73.20
2019-02-12T18:50:13.568Z,72.90
2019-02-12T18:52:44.354Z,73.00
2019-02-12T18:55:14.884Z,72.90
2019-02-12T18:57:45.355Z,73.20
2019-02-12T19:00:17.640Z,73.20
2019-02-12T19:02:48.511Z,73.50
2019-02-12T19:05:18.965Z,73.70
2019-02-12T19:07:49.425Z,73.90
2019-02-12T19:10:19.890Z,73.90
2019-02-12T19:12:51.402Z,73.80
2019-02-12T19:15:21.888Z,73.60
2019-02-12T19:17:56.460Z,73.40
2019-02-12T19:20:26.920Z,73.20
2019-02-12T19:22:57.353Z,73.30
2019-02-12T19:25:27.836Z,73.20
2019-02-12T19:27:58.713Z,73.30
2019-02-12T19:30:29.162Z,73.70
2019-02-12T19:32:59.652Z,73.70
2019-02-12T19:35:30.127Z,73.70
2019-02-12T19:38:00.618Z,73.80
2019-02-12T19:40:31.055Z,73.70
2019-02-12T19:43:02.513Z,74.40
2019-02-12T19:45:32.948Z,74.00
2019-02-12T19:48:03.425Z,74.20
2019-02-12T19:50:33.881Z,74.10
2019-02-12T19:53:04.602Z,74.20
2019-02-12T19:55:35.437Z,74.40
2019-02-12T19:58:05.933Z,74.90
2019-02-12T20:00:36.385Z,75.10
2019-02-12T20:03:06.846Z,75.20
2019-02-12T20:05:38.288Z,75.00
2019-02-12T20:08:08.774Z,75.10
2019-02-12T20:10:39.229Z,75.40
2019-02-12T20:13:09.798Z,75.70
2019-02-12T20:15:40.276Z,76.00
2019-02-12T20:18:10.737Z,76.10
2019-02-12T20:20:41.168Z,75.30
2019-02-12T20:23:11.801Z,75.00
2019-02-12T20:25:42.228Z,74.90
2019-02-12T20:28:12.702Z,74.40
2019-02-12T20:30:43.154Z,74.40
2019-02-12T20:33:14.915Z,74.10
2019-02-12T20:35:45.349Z,74.30
2019-02-12T20:38:15.838Z,74.80
2019-02-12T20:40:46.316Z,74.10
2019-02-12T20:43:16.812Z,74.10
2019-02-12T20:45:47.272Z,73.40
2019-02-12T20:48:17.725Z,73.20
2019-02-12T20:50:48.317Z,73.50
2019-02-12T20:53:18.831Z,73.30
2019-02-12T20:55:49.309Z,73.20
2019-02-12T20:58:20.259Z,73.40
2019-02-12T21:00:50.801Z,73.50
2019-02-12T21:03:21.338Z,74.30
2019-02-12T21:05:51.802Z,74.30
2019-02-12T21:08:22.928Z,74.30
2019-02-12T21:10:53.500Z,74.10
2019-02-12T21:13:23.988Z,74.90
2019-02-12T21:15:54.468Z,74.40
2019-02-12T21:18:24.916Z,74.80
2019-02-12T21:20:55.361Z,75.20
2019-02-12T21:23:26.025Z,75.50
2019-02-12T21:25:56.605Z,76.10
2019-02-12T21:28:27.055Z,75.50
2019-02-12T21:30:57.476Z,75.90
2019-02-12T21:33:27.948Z,77.00
2019-02-12T21:35:58.381Z,76.80
2019-02-12T21:38:30.269Z,77.00
2019-02-12T21:41:01.029Z,76.80
2019-02-12T21:43:31.987Z,76.90
2019-02-12T21:46:02.433Z,76.60
2019-02-12T21:48:32.904Z,76.30
2019-02-12T21:51:03.361Z,77.00
2019-02-12T21:53:33.833Z,76.80
2019-02-12T21:56:04.277Z,77.10
2019-02-12T21:58:35.046Z,76.90
2019-02-12T22:01:05.498Z,76.90
2019-02-12T22:03:36.329Z,76.70
2019-02-12T22:06:06.800Z,76.50
2019-02-12T22:08:37.241Z,77.00
2019-02-12T22:11:07.680Z,76.90
2019-02-12T22:13:38.547Z,76.40
2019-02-12T22:16:08.988Z,76.40
2019-02-12T22:18:39.432Z,76.00
2019-02-12T22:21:09.856Z,76.00
2019-02-12T22:23:40.285Z,76.00
2019-02-12T22:26:11.009Z,75.90
2019-02-12T22:28:41.780Z,76.50
2019-02-12T22:31:12.235Z,76.50
2019-02-12T22:33:43.072Z,76.40
2019-02-12T22:36:13.524Z,76.70
2019-02-12T22:38:44.043Z,77.00
2019-02-12T22:41:14.502Z,76.90
2019-02-12T22:43:44.965Z,76.70
2019-02-12T22:46:15.425Z,76.90
2019-02-12T22:48:46.132Z,77.10
2019-02-12T22:51:16.641Z,77.00
2019-02-12T22:53:47.406Z,77.10
2019-02-12T22:56:17.839Z,76.80
2019-02-12T22:58:48.314Z,76.80
2019-02-12T23:01:22.996Z,77.30
2019-02-12T23:03:53.513Z,77.30
2019-02-12T23:06:23.930Z,77.20
2019-02-12T23:08:54.363Z,77.30
2019-02-12T23:11:26.447Z,77.30
2019-02-12T23:13:58.018Z,77.40
2019-02-12T23:16:28.466Z,77.60
2019-02-12T23:18:58.957Z,77.90
2019-02-12T23:21:29.375Z,78.00
2019-02-12T23:24:00.134Z,78.30
2019-02-12T23:26:30.573Z,78.20
2019-02-12T23:29:01.033Z,78.60
2019-02-12T23:31:32.486Z,78.50
2019-02-12T23:34:03.629Z,78.50
2019-02-12T23:36:34.069Z,78.50
2019-02-12T23:39:06.021Z,78.30
2019-02-12T23:41:38.113Z,78.50
2019-02-12T23:44:08.570Z,78.60
2019-02-12T23:46:39.008Z,78.40
2019-02-12T23:49:09.508Z,78.40
2019-02-12T23:51:39.973Z,78.40
2019-02-12T23:54:10.397Z,78.50
2019-02-12T23:56:40.872Z,79.00
2019-02-12T23:59:11.330Z,79.00
